sensor_id;sensor_type;location;lat;lon;timestamp;P1;durP1;ratioP1;P2;durP2;ratioP2
49416;SDS011;35290;39.550;8.786;2023-07-31T00:01:02;8.30;;;3.03;;
49416;SDS011;35290;39.550;8.786;2023-07-31T00:03:27;7.13;;;2.90;;
49416;SDS011;35290;39.550;8.786;2023-07-31T00:05:53;6.73;;;3.20;;
49416;SDS011;35290;39.550;8.786;2023-07-31T00:08:18;6.85;;;3.10;;
49416;SDS011;35290;39.550;8.786;2023-07-31T00:10:43;6.63;;;3.15;;
49416;SDS011;35290;39.550;8.786;2023-07-31T00:13:09;6.70;;;2.85;;
49416;SDS011;35290;39.550;8.786;2023-07-31T00:15:34;3.88;;;2.70;;
49416;SDS011;35290;39.550;8.786;2023-07-31T00:18:00;6.88;;;3.15;;
49416;SDS011;35290;39.550;8.786;2023-07-31T00:20:26;5.63;;;2.95;;
49416;SDS011;35290;39.550;8.786;2023-07-31T00:22:51;6.20;;;3.30;;
49416;SDS011;35290;39.550;8.786;2023-07-31T00:25:17;6.80;;;3.25;;
49416;SDS011;35290;39.550;8.786;2023-07-31T00:27:42;8.93;;;3.30;;
49416;SDS011;35290;39.550;8.786;2023-07-31T00:30:09;9.88;;;3.67;;
49416;SDS011;35290;39.550;8.786;2023-07-31T00:32:35;7.32;;;4.18;;
49416;SDS011;35290;39.550;8.786;2023-07-31T00:35:00;10.25;;;4.00;;
49416;SDS011;35290;39.550;8.786;2023-07-31T00:37:27;13.45;;;3.67;;
49416;SDS011;35290;39.550;8.786;2023-07-31T00:39:54;8.55;;;3.40;;
49416;SDS011;35290;39.550;8.786;2023-07-31T00:42:19;4.78;;;3.47;;
49416;SDS011;35290;39.550;8.786;2023-07-31T00:44:45;8.75;;;3.22;;
49416;SDS011;35290;39.550;8.786;2023-07-31T00:47:10;8.93;;;3.47;;
49416;SDS011;35290;39.550;8.786;2023-07-31T00:49:35;6.00;;;3.53;;
49416;SDS011;35290;39.550;8.786;2023-07-31T00:52:01;9.40;;;3.55;;
49416;SDS011;35290;39.550;8.786;2023-07-31T00:54:27;10.40;;;3.60;;
49416;SDS011;35290;39.550;8.786;2023-07-31T00:56:53;6.05;;;3.25;;
49416;SDS011;35290;39.550;8.786;2023-07-31T00:59:20;7.78;;;3.25;;
49416;SDS011;35290;39.550;8.786;2023-07-31T01:01:46;6.13;;;3.15;;
49416;SDS011;35290;39.550;8.786;2023-07-31T01:04:11;6.57;;;3.53;;
49416;SDS011;35290;39.550;8.786;2023-07-31T01:06:59;9.95;;;4.32;;
49416;SDS011;35290;39.550;8.786;2023-07-31T01:09:43;5.63;;;3.63;;
49416;SDS011;35290;39.550;8.786;2023-07-31T01:12:11;6.45;;;3.25;;
49416;SDS011;35290;39.550;8.786;2023-07-31T01:14:37;6.63;;;3.40;;
49416;SDS011;35290;39.550;8.786;2023-07-31T01:17:03;5.53;;;2.92;;
49416;SDS011;35290;39.550;8.786;2023-07-31T01:19:28;5.00;;;3.03;;
49416;SDS011;35290;39.550;8.786;2023-07-31T01:27:17;7.38;;;3.65;;
49416;SDS011;35290;39.550;8.786;2023-07-31T01:32:26;7.10;;;3.40;;
49416;SDS011;35290;39.550;8.786;2023-07-31T01:34:53;5.63;;;3.50;;
49416;SDS011;35290;39.550;8.786;2023-07-31T01:37:18;6.82;;;3.55;;
49416;SDS011;35290;39.550;8.786;2023-07-31T01:39:44;5.75;;;3.35;;
49416;SDS011;35290;39.550;8.786;2023-07-31T01:42:09;7.22;;;3.47;;
49416;SDS011;35290;39.550;8.786;2023-07-31T01:44:34;7.20;;;3.58;;
49416;SDS011;35290;39.550;8.786;2023-07-31T01:47:00;7.68;;;3.65;;
49416;SDS011;35290;39.550;8.786;2023-07-31T01:49:25;6.68;;;3.78;;
49416;SDS011;35290;39.550;8.786;2023-07-31T01:51:51;5.97;;;3.25;;
49416;SDS011;35290;39.550;8.786;2023-07-31T01:54:16;7.47;;;4.18;;
49416;SDS011;35290;39.550;8.786;2023-07-31T01:56:42;6.95;;;3.60;;
49416;SDS011;35290;39.550;8.786;2023-07-31T01:59:07;6.20;;;3.83;;
49416;SDS011;35290;39.550;8.786;2023-07-31T02:01:32;10.07;;;4.45;;
49416;SDS011;35290;39.550;8.786;2023-07-31T02:03:58;6.30;;;3.83;;
49416;SDS011;35290;39.550;8.786;2023-07-31T02:06:24;6.03;;;3.85;;
49416;SDS011;35290;39.550;8.786;2023-07-31T02:08:50;7.05;;;3.83;;
49416;SDS011;35290;39.550;8.786;2023-07-31T02:11:15;8.45;;;4.18;;
49416;SDS011;35290;39.550;8.786;2023-07-31T02:13:42;7.63;;;4.07;;
49416;SDS011;35290;39.550;8.786;2023-07-31T02:16:08;8.73;;;4.38;;
49416;SDS011;35290;39.550;8.786;2023-07-31T02:18:33;8.15;;;4.03;;
49416;SDS011;35290;39.550;8.786;2023-07-31T02:20:58;6.88;;;4.03;;
49416;SDS011;35290;39.550;8.786;2023-07-31T02:23:24;9.98;;;4.95;;
49416;SDS011;35290;39.550;8.786;2023-07-31T02:25:49;8.85;;;4.70;;
49416;SDS011;35290;39.550;8.786;2023-07-31T02:28:15;7.93;;;4.38;;
49416;SDS011;35290;39.550;8.786;2023-07-31T02:30:43;6.97;;;4.38;;
49416;SDS011;35290;39.550;8.786;2023-07-31T02:33:08;7.00;;;4.60;;
49416;SDS011;35290;39.550;8.786;2023-07-31T02:35:34;10.15;;;5.18;;
49416;SDS011;35290;39.550;8.786;2023-07-31T02:37:59;10.63;;;4.90;;
49416;SDS011;35290;39.550;8.786;2023-07-31T02:40:25;8.98;;;4.85;;
49416;SDS011;35290;39.550;8.786;2023-07-31T02:42:50;10.13;;;5.30;;
49416;SDS011;35290;39.550;8.786;2023-07-31T02:45:15;10.55;;;4.65;;
49416;SDS011;35290;39.550;8.786;2023-07-31T02:47:41;9.57;;;4.82;;
49416;SDS011;35290;39.550;8.786;2023-07-31T02:50:06;9.82;;;4.80;;
49416;SDS011;35290;39.550;8.786;2023-07-31T02:52:31;9.23;;;4.82;;
49416;SDS011;35290;39.550;8.786;2023-07-31T02:54:57;9.05;;;4.90;;
49416;SDS011;35290;39.550;8.786;2023-07-31T02:57:23;8.48;;;4.57;;
49416;SDS011;35290;39.550;8.786;2023-07-31T02:59:48;7.68;;;4.53;;
49416;SDS011;35290;39.550;8.786;2023-07-31T03:02:13;9.02;;;4.43;;
49416;SDS011;35290;39.550;8.786;2023-07-31T03:04:39;6.65;;;4.45;;
49416;SDS011;35290;39.550;8.786;2023-07-31T03:07:04;8.13;;;4.50;;
49416;SDS011;35290;39.550;8.786;2023-07-31T03:09:30;8.88;;;4.18;;
49416;SDS011;35290;39.550;8.786;2023-07-31T03:11:55;7.00;;;4.22;;
49416;SDS011;35290;39.550;8.786;2023-07-31T03:14:21;9.05;;;4.82;;
49416;SDS011;35290;39.550;8.786;2023-07-31T03:16:46;5.40;;;4.20;;
49416;SDS011;35290;39.550;8.786;2023-07-31T03:19:11;7.85;;;4.25;;
49416;SDS011;35290;39.550;8.786;2023-07-31T03:21:37;11.73;;;4.80;;
49416;SDS011;35290;39.550;8.786;2023-07-31T03:24:02;9.18;;;4.78;;
49416;SDS011;35290;39.550;8.786;2023-07-31T03:26:30;6.22;;;4.15;;
49416;SDS011;35290;39.550;8.786;2023-07-31T03:28:56;7.25;;;4.10;;
49416;SDS011;35290;39.550;8.786;2023-07-31T03:31:21;9.10;;;4.10;;
49416;SDS011;35290;39.550;8.786;2023-07-31T03:33:46;8.43;;;4.07;;
49416;SDS011;35290;39.550;8.786;2023-07-31T03:36:12;7.95;;;4.30;;
49416;SDS011;35290;39.550;8.786;2023-07-31T03:38:37;9.05;;;4.10;;
49416;SDS011;35290;39.550;8.786;2023-07-31T03:41:02;9.43;;;4.20;;
49416;SDS011;35290;39.550;8.786;2023-07-31T03:43:28;7.07;;;4.35;;
49416;SDS011;35290;39.550;8.786;2023-07-31T03:45:53;7.65;;;4.03;;
49416;SDS011;35290;39.550;8.786;2023-07-31T03:48:18;7.53;;;4.40;;
49416;SDS011;35290;39.550;8.786;2023-07-31T03:50:44;8.45;;;4.45;;
49416;SDS011;35290;39.550;8.786;2023-07-31T03:53:09;5.63;;;4.00;;
49416;SDS011;35290;39.550;8.786;2023-07-31T03:55:34;9.57;;;4.32;;
49416;SDS011;35290;39.550;8.786;2023-07-31T03:58:00;7.00;;;3.95;;
49416;SDS011;35290;39.550;8.786;2023-07-31T04:00:26;7.80;;;4.40;;
49416;SDS011;35290;39.550;8.786;2023-07-31T04:02:51;8.77;;;4.18;;
49416;SDS011;35290;39.550;8.786;2023-07-31T04:05:16;8.32;;;4.50;;
49416;SDS011;35290;39.550;8.786;2023-07-31T04:07:42;6.40;;;4.60;;
49416;SDS011;35290;39.550;8.786;2023-07-31T04:10:07;9.18;;;4.60;;
49416;SDS011;35290;39.550;8.786;2023-07-31T04:12:33;7.07;;;4.65;;
49416;SDS011;35290;39.550;8.786;2023-07-31T04:14:58;7.57;;;4.43;;
49416;SDS011;35290;39.550;8.786;2023-07-31T04:17:23;7.00;;;4.18;;
49416;SDS011;35290;39.550;8.786;2023-07-31T04:19:49;8.48;;;4.93;;
49416;SDS011;35290;39.550;8.786;2023-07-31T04:22:14;6.20;;;4.43;;
49416;SDS011;35290;39.550;8.786;2023-07-31T04:24:39;6.95;;;4.32;;
49416;SDS011;35290;39.550;8.786;2023-07-31T04:27:05;7.40;;;4.47;;
49416;SDS011;35290;39.550;8.786;2023-07-31T04:29:30;13.15;;;5.60;;
49416;SDS011;35290;39.550;8.786;2023-07-31T04:31:55;7.30;;;4.63;;
49416;SDS011;35290;39.550;8.786;2023-07-31T04:34:21;7.60;;;4.60;;
49416;SDS011;35290;39.550;8.786;2023-07-31T04:36:46;6.13;;;4.47;;
49416;SDS011;35290;39.550;8.786;2023-07-31T04:39:11;7.88;;;4.47;;
49416;SDS011;35290;39.550;8.786;2023-07-31T04:41:37;8.93;;;4.20;;
49416;SDS011;35290;39.550;8.786;2023-07-31T04:44:02;7.55;;;4.50;;
49416;SDS011;35290;39.550;8.786;2023-07-31T04:46:31;6.50;;;4.22;;
49416;SDS011;35290;39.550;8.786;2023-07-31T04:48:57;8.18;;;4.38;;
49416;SDS011;35290;39.550;8.786;2023-07-31T04:51:22;8.27;;;4.72;;
49416;SDS011;35290;39.550;8.786;2023-07-31T04:53:48;9.65;;;4.60;;
49416;SDS011;35290;39.550;8.786;2023-07-31T04:56:14;9.40;;;4.80;;
49416;SDS011;35290;39.550;8.786;2023-07-31T04:58:40;10.20;;;4.57;;
49416;SDS011;35290;39.550;8.786;2023-07-31T05:01:05;8.05;;;4.60;;
49416;SDS011;35290;39.550;8.786;2023-07-31T05:03:31;5.78;;;4.50;;
49416;SDS011;35290;39.550;8.786;2023-07-31T05:05:56;8.75;;;4.68;;
49416;SDS011;35290;39.550;8.786;2023-07-31T05:08:22;11.88;;;5.32;;
49416;SDS011;35290;39.550;8.786;2023-07-31T05:10:47;7.05;;;4.82;;
49416;SDS011;35290;39.550;8.786;2023-07-31T05:13:13;6.47;;;4.75;;
49416;SDS011;35290;39.550;8.786;2023-07-31T05:15:40;11.52;;;5.00;;
49416;SDS011;35290;39.550;8.786;2023-07-31T05:18:06;7.05;;;4.32;;
49416;SDS011;35290;39.550;8.786;2023-07-31T05:20:31;6.00;;;4.20;;
49416;SDS011;35290;39.550;8.786;2023-07-31T05:22:57;7.28;;;4.68;;
49416;SDS011;35290;39.550;8.786;2023-07-31T05:25:22;7.63;;;4.22;;
49416;SDS011;35290;39.550;8.786;2023-07-31T05:27:47;6.90;;;4.47;;
49416;SDS011;35290;39.550;8.786;2023-07-31T05:30:13;7.97;;;4.50;;
49416;SDS011;35290;39.550;8.786;2023-07-31T05:32:38;5.32;;;4.22;;
49416;SDS011;35290;39.550;8.786;2023-07-31T05:35:04;6.75;;;4.32;;
49416;SDS011;35290;39.550;8.786;2023-07-31T05:37:29;9.90;;;4.13;;
49416;SDS011;35290;39.550;8.786;2023-07-31T05:39:54;6.95;;;3.55;;
49416;SDS011;35290;39.550;8.786;2023-07-31T05:42:20;7.28;;;3.53;;
49416;SDS011;35290;39.550;8.786;2023-07-31T05:44:45;9.23;;;3.90;;
49416;SDS011;35290;39.550;8.786;2023-07-31T05:47:11;4.82;;;3.33;;
49416;SDS011;35290;39.550;8.786;2023-07-31T05:49:36;5.28;;;3.78;;
49416;SDS011;35290;39.550;8.786;2023-07-31T05:52:02;4.78;;;3.40;;
49416;SDS011;35290;39.550;8.786;2023-07-31T05:54:27;6.00;;;3.10;;
49416;SDS011;35290;39.550;8.786;2023-07-31T05:56:52;5.53;;;3.05;;
49416;SDS011;35290;39.550;8.786;2023-07-31T05:59:18;5.55;;;3.03;;
49416;SDS011;35290;39.550;8.786;2023-07-31T06:01:43;4.55;;;3.05;;
49416;SDS011;35290;39.550;8.786;2023-07-31T06:04:09;7.47;;;3.05;;
49416;SDS011;35290;39.550;8.786;2023-07-31T06:06:34;5.70;;;3.13;;
49416;SDS011;35290;39.550;8.786;2023-07-31T06:08:59;8.55;;;3.20;;
49416;SDS011;35290;39.550;8.786;2023-07-31T06:11:25;6.10;;;3.05;;
49416;SDS011;35290;39.550;8.786;2023-07-31T06:13:50;9.65;;;3.08;;
49416;SDS011;35290;39.550;8.786;2023-07-31T06:16:16;7.65;;;3.00;;
49416;SDS011;35290;39.550;8.786;2023-07-31T06:18:42;7.40;;;3.30;;
49416;SDS011;35290;39.550;8.786;2023-07-31T06:21:07;5.68;;;2.83;;
49416;SDS011;35290;39.550;8.786;2023-07-31T06:23:32;6.07;;;2.88;;
49416;SDS011;35290;39.550;8.786;2023-07-31T06:25:58;6.25;;;3.60;;
49416;SDS011;35290;39.550;8.786;2023-07-31T06:28:29;6.80;;;2.92;;
49416;SDS011;35290;39.550;8.786;2023-07-31T06:30:55;9.63;;;3.20;;
49416;SDS011;35290;39.550;8.786;2023-07-31T06:33:21;4.13;;;2.90;;
49416;SDS011;35290;39.550;8.786;2023-07-31T06:35:46;8.35;;;3.40;;
49416;SDS011;35290;39.550;8.786;2023-07-31T06:38:12;6.85;;;3.40;;
49416;SDS011;35290;39.550;8.786;2023-07-31T06:40:37;9.32;;;3.53;;
49416;SDS011;35290;39.550;8.786;2023-07-31T06:43:03;8.93;;;3.60;;
49416;SDS011;35290;39.550;8.786;2023-07-31T06:45:34;9.02;;;3.60;;
49416;SDS011;35290;39.550;8.786;2023-07-31T06:48:00;6.82;;;3.10;;
49416;SDS011;35290;39.550;8.786;2023-07-31T06:50:27;13.05;;;3.33;;
49416;SDS011;35290;39.550;8.786;2023-07-31T06:52:52;10.25;;;3.05;;
49416;SDS011;35290;39.550;8.786;2023-07-31T06:55:20;8.87;;;3.10;;
49416;SDS011;35290;39.550;8.786;2023-07-31T06:57:47;7.80;;;2.90;;
49416;SDS011;35290;39.550;8.786;2023-07-31T07:00:13;5.35;;;3.03;;
49416;SDS011;35290;39.550;8.786;2023-07-31T07:02:38;7.00;;;2.95;;
49416;SDS011;35290;39.550;8.786;2023-07-31T07:05:04;7.82;;;2.75;;
49416;SDS011;35290;39.550;8.786;2023-07-31T07:07:29;8.48;;;3.17;;
49416;SDS011;35290;39.550;8.786;2023-07-31T07:09:55;9.25;;;2.65;;
49416;SDS011;35290;39.550;8.786;2023-07-31T07:12:20;7.35;;;2.72;;
49416;SDS011;35290;39.550;8.786;2023-07-31T07:14:45;6.43;;;2.72;;
49416;SDS011;35290;39.550;8.786;2023-07-31T07:17:13;4.97;;;2.33;;
49416;SDS011;35290;39.550;8.786;2023-07-31T07:19:41;10.43;;;2.90;;
49416;SDS011;35290;39.550;8.786;2023-07-31T07:22:07;7.70;;;2.70;;
49416;SDS011;35290;39.550;8.786;2023-07-31T07:24:32;4.95;;;2.30;;
49416;SDS011;35290;39.550;8.786;2023-07-31T07:26:58;4.10;;;2.17;;
49416;SDS011;35290;39.550;8.786;2023-07-31T07:29:23;4.78;;;2.60;;
49416;SDS011;35290;39.550;8.786;2023-07-31T07:31:48;10.98;;;2.80;;
49416;SDS011;35290;39.550;8.786;2023-07-31T07:34:14;7.68;;;2.63;;
49416;SDS011;35290;39.550;8.786;2023-07-31T07:36:39;6.25;;;2.40;;
49416;SDS011;35290;39.550;8.786;2023-07-31T07:39:04;8.35;;;2.50;;
49416;SDS011;35290;39.550;8.786;2023-07-31T07:41:30;5.38;;;2.50;;
49416;SDS011;35290;39.550;8.786;2023-07-31T07:43:55;6.85;;;3.00;;
49416;SDS011;35290;39.550;8.786;2023-07-31T07:46:21;7.22;;;2.50;;
49416;SDS011;35290;39.550;8.786;2023-07-31T07:48:46;7.38;;;2.70;;
49416;SDS011;35290;39.550;8.786;2023-07-31T07:51:11;7.55;;;2.33;;
49416;SDS011;35290;39.550;8.786;2023-07-31T07:53:40;6.13;;;1.80;;
49416;SDS011;35290;39.550;8.786;2023-07-31T07:56:05;4.13;;;1.90;;
49416;SDS011;35290;39.550;8.786;2023-07-31T07:58:30;4.50;;;1.80;;
49416;SDS011;35290;39.550;8.786;2023-07-31T08:00:55;5.05;;;1.63;;
49416;SDS011;35290;39.550;8.786;2023-07-31T08:03:21;3.80;;;1.60;;
49416;SDS011;35290;39.550;8.786;2023-07-31T08:05:49;8.52;;;1.70;;
49416;SDS011;35290;39.550;8.786;2023-07-31T08:08:17;5.80;;;1.80;;
49416;SDS011;35290;39.550;8.786;2023-07-31T08:10:45;5.95;;;1.60;;
49416;SDS011;35290;39.550;8.786;2023-07-31T08:13:11;4.07;;;1.70;;
49416;SDS011;35290;39.550;8.786;2023-07-31T08:15:37;6.85;;;1.60;;
49416;SDS011;35290;39.550;8.786;2023-07-31T08:18:02;4.07;;;1.60;;
49416;SDS011;35290;39.550;8.786;2023-07-31T08:20:27;5.30;;;1.95;;
49416;SDS011;35290;39.550;8.786;2023-07-31T08:22:55;7.00;;;1.60;;
49416;SDS011;35290;39.550;8.786;2023-07-31T08:25:20;4.80;;;1.60;;
49416;SDS011;35290;39.550;8.786;2023-07-31T08:27:46;5.97;;;1.70;;
49416;SDS011;35290;39.550;8.786;2023-07-31T08:30:12;4.68;;;1.80;;
49416;SDS011;35290;39.550;8.786;2023-07-31T08:32:37;2.83;;;1.30;;
49416;SDS011;35290;39.550;8.786;2023-07-31T08:35:03;4.68;;;1.45;;
49416;SDS011;35290;39.550;8.786;2023-07-31T08:37:28;3.88;;;1.40;;
49416;SDS011;35290;39.550;8.786;2023-07-31T08:39:53;4.25;;;1.60;;
49416;SDS011;35290;39.550;8.786;2023-07-31T08:42:19;7.22;;;1.40;;
49416;SDS011;35290;39.550;8.786;2023-07-31T08:44:45;6.70;;;1.80;;
49416;SDS011;35290;39.550;8.786;2023-07-31T08:47:11;5.15;;;1.65;;
49416;SDS011;35290;39.550;8.786;2023-07-31T08:49:37;7.50;;;1.73;;
49416;SDS011;35290;39.550;8.786;2023-07-31T08:52:03;4.03;;;1.45;;
49416;SDS011;35290;39.550;8.786;2023-07-31T08:54:29;3.42;;;1.50;;
49416;SDS011;35290;39.550;8.786;2023-07-31T08:56:57;5.30;;;1.70;;
49416;SDS011;35290;39.550;8.786;2023-07-31T08:59:24;3.50;;;1.50;;
49416;SDS011;35290;39.550;8.786;2023-07-31T09:01:52;5.03;;;1.25;;
49416;SDS011;35290;39.550;8.786;2023-07-31T09:04:18;5.10;;;1.58;;
49416;SDS011;35290;39.550;8.786;2023-07-31T09:06:45;2.83;;;1.35;;
49416;SDS011;35290;39.550;8.786;2023-07-31T09:09:11;4.30;;;1.50;;
49416;SDS011;35290;39.550;8.786;2023-07-31T09:11:37;4.40;;;1.85;;
49416;SDS011;35290;39.550;8.786;2023-07-31T09:14:02;2.38;;;1.40;;
49416;SDS011;35290;39.550;8.786;2023-07-31T09:16:33;4.05;;;1.40;;
49416;SDS011;35290;39.550;8.786;2023-07-31T09:19:08;4.00;;;1.80;;
49416;SDS011;35290;39.550;8.786;2023-07-31T09:21:33;4.15;;;1.40;;
49416;SDS011;35290;39.550;8.786;2023-07-31T09:24:04;5.93;;;1.63;;
49416;SDS011;35290;39.550;8.786;2023-07-31T09:26:30;4.50;;;1.70;;
49416;SDS011;35290;39.550;8.786;2023-07-31T09:28:58;5.35;;;1.50;;
49416;SDS011;35290;39.550;8.786;2023-07-31T09:33:58;7.07;;;1.70;;
49416;SDS011;35290;39.550;8.786;2023-07-31T09:36:23;3.53;;;1.70;;
49416;SDS011;35290;39.550;8.786;2023-07-31T09:38:48;9.02;;;1.60;;
49416;SDS011;35290;39.550;8.786;2023-07-31T09:41:14;4.40;;;1.67;;
49416;SDS011;35290;39.550;8.786;2023-07-31T09:43:39;6.93;;;1.60;;
49416;SDS011;35290;39.550;8.786;2023-07-31T09:46:04;6.28;;;1.63;;
49416;SDS011;35290;39.550;8.786;2023-07-31T09:48:38;4.57;;;1.55;;
49416;SDS011;35290;39.550;8.786;2023-07-31T09:51:04;5.45;;;1.67;;
49416;SDS011;35290;39.550;8.786;2023-07-31T09:53:30;6.18;;;1.55;;
49416;SDS011;35290;39.550;8.786;2023-07-31T09:56:04;4.00;;;1.70;;
49416;SDS011;35290;39.550;8.786;2023-07-31T09:58:30;8.55;;;2.25;;
49416;SDS011;35290;39.550;8.786;2023-07-31T10:00:58;7.53;;;1.95;;
49416;SDS011;35290;39.550;8.786;2023-07-31T10:03:26;6.50;;;1.80;;
49416;SDS011;35290;39.550;8.786;2023-07-31T10:05:53;8.35;;;1.92;;
49416;SDS011;35290;39.550;8.786;2023-07-31T10:08:20;4.45;;;1.63;;
49416;SDS011;35290;39.550;8.786;2023-07-31T10:10:46;9.75;;;2.10;;
49416;SDS011;35290;39.550;8.786;2023-07-31T10:13:12;6.13;;;1.80;;
49416;SDS011;35290;39.550;8.786;2023-07-31T10:15:37;7.00;;;2.10;;
49416;SDS011;35290;39.550;8.786;2023-07-31T10:18:03;7.95;;;2.50;;
49416;SDS011;35290;39.550;8.786;2023-07-31T10:20:30;7.40;;;2.08;;
49416;SDS011;35290;39.550;8.786;2023-07-31T10:22:56;5.93;;;2.00;;
49416;SDS011;35290;39.550;8.786;2023-07-31T10:25:22;8.80;;;2.20;;
49416;SDS011;35290;39.550;8.786;2023-07-31T10:27:47;6.38;;;2.00;;
49416;SDS011;35290;39.550;8.786;2023-07-31T10:30:17;5.82;;;2.00;;
49416;SDS011;35290;39.550;8.786;2023-07-31T10:32:44;7.30;;;1.88;;
49416;SDS011;35290;39.550;8.786;2023-07-31T10:35:10;8.48;;;2.00;;
49416;SDS011;35290;39.550;8.786;2023-07-31T10:37:42;7.35;;;2.42;;
49416;SDS011;35290;39.550;8.786;2023-07-31T10:40:23;8.10;;;2.25;;
49416;SDS011;35290;39.550;8.786;2023-07-31T10:42:49;8.18;;;2.67;;
49416;SDS011;35290;39.550;8.786;2023-07-31T10:45:31;9.68;;;1.90;;
49416;SDS011;35290;39.550;8.786;2023-07-31T10:48:01;10.55;;;2.60;;
49416;SDS011;35290;39.550;8.786;2023-07-31T10:50:27;7.30;;;2.08;;
49416;SDS011;35290;39.550;8.786;2023-07-31T10:52:53;9.25;;;2.40;;
49416;SDS011;35290;39.550;8.786;2023-07-31T10:55:29;6.65;;;2.10;;
49416;SDS011;35290;39.550;8.786;2023-07-31T10:57:56;8.88;;;2.22;;
49416;SDS011;35290;39.550;8.786;2023-07-31T11:00:24;11.27;;;2.63;;
49416;SDS011;35290;39.550;8.786;2023-07-31T11:03:00;8.32;;;2.30;;
49416;SDS011;35290;39.550;8.786;2023-07-31T11:08:22;9.13;;;2.30;;
49416;SDS011;35290;39.550;8.786;2023-07-31T11:10:51;6.80;;;2.30;;
49416;SDS011;35290;39.550;8.786;2023-07-31T11:13:32;9.45;;;2.30;;
49416;SDS011;35290;39.550;8.786;2023-07-31T11:16:01;7.15;;;2.40;;
49416;SDS011;35290;39.550;8.786;2023-07-31T11:18:26;9.88;;;2.53;;
49416;SDS011;35290;39.550;8.786;2023-07-31T11:20:52;10.25;;;2.65;;
49416;SDS011;35290;39.550;8.786;2023-07-31T11:23:17;11.50;;;2.72;;
49416;SDS011;35290;39.550;8.786;2023-07-31T11:25:45;8.40;;;2.25;;
49416;SDS011;35290;39.550;8.786;2023-07-31T11:28:11;6.13;;;2.03;;
49416;SDS011;35290;39.550;8.786;2023-07-31T11:30:37;7.10;;;2.25;;
49416;SDS011;35290;39.550;8.786;2023-07-31T11:33:03;7.60;;;2.40;;
49416;SDS011;35290;39.550;8.786;2023-07-31T11:35:49;11.82;;;2.92;;
49416;SDS011;35290;39.550;8.786;2023-07-31T11:38:27;5.85;;;2.00;;
49416;SDS011;35290;39.550;8.786;2023-07-31T11:40:53;5.80;;;2.33;;
49416;SDS011;35290;39.550;8.786;2023-07-31T11:43:19;8.90;;;2.78;;
49416;SDS011;35290;39.550;8.786;2023-07-31T11:45:48;7.38;;;2.63;;
49416;SDS011;35290;39.550;8.786;2023-07-31T11:48:24;8.05;;;2.60;;
49416;SDS011;35290;39.550;8.786;2023-07-31T11:50:51;8.77;;;2.70;;
49416;SDS011;35290;39.550;8.786;2023-07-31T11:53:19;6.40;;;2.30;;
49416;SDS011;35290;39.550;8.786;2023-07-31T11:56:03;11.05;;;2.55;;
49416;SDS011;35290;39.550;8.786;2023-07-31T11:58:36;8.90;;;2.78;;
49416;SDS011;35290;39.550;8.786;2023-07-31T12:01:04;6.70;;;2.22;;
49416;SDS011;35290;39.550;8.786;2023-07-31T12:03:31;6.80;;;2.38;;
49416;SDS011;35290;39.550;8.786;2023-07-31T12:05:57;6.28;;;2.17;;
49416;SDS011;35290;39.550;8.786;2023-07-31T12:08:26;9.85;;;2.55;;
49416;SDS011;35290;39.550;8.786;2023-07-31T12:10:52;5.25;;;2.17;;
49416;SDS011;35290;39.550;8.786;2023-07-31T12:13:22;9.07;;;2.60;;
49416;SDS011;35290;39.550;8.786;2023-07-31T12:15:47;8.15;;;2.47;;
49416;SDS011;35290;39.550;8.786;2023-07-31T12:18:13;6.90;;;2.30;;
49416;SDS011;35290;39.550;8.786;2023-07-31T12:20:55;8.32;;;2.60;;
49416;SDS011;35290;39.550;8.786;2023-07-31T12:28:49;10.32;;;2.75;;
49416;SDS011;35290;39.550;8.786;2023-07-31T12:33:42;4.97;;;2.20;;
49416;SDS011;35290;39.550;8.786;2023-07-31T12:36:09;6.38;;;2.00;;
49416;SDS011;35290;39.550;8.786;2023-07-31T12:38:34;6.88;;;2.08;;
49416;SDS011;35290;39.550;8.786;2023-07-31T12:41:00;5.72;;;1.98;;
49416;SDS011;35290;39.550;8.786;2023-07-31T12:43:25;5.35;;;2.00;;
49416;SDS011;35290;39.550;8.786;2023-07-31T12:45:51;10.05;;;2.17;;
49416;SDS011;35290;39.550;8.786;2023-07-31T12:48:18;8.57;;;1.90;;
49416;SDS011;35290;39.550;8.786;2023-07-31T12:50:44;4.20;;;2.10;;
49416;SDS011;35290;39.550;8.786;2023-07-31T12:53:12;3.97;;;1.80;;
49416;SDS011;35290;39.550;8.786;2023-07-31T12:55:38;4.28;;;1.92;;
49416;SDS011;35290;39.550;8.786;2023-07-31T12:58:07;6.72;;;1.83;;
49416;SDS011;35290;39.550;8.786;2023-07-31T13:00:32;6.70;;;2.05;;
49416;SDS011;35290;39.550;8.786;2023-07-31T13:03:05;2.05;;;1.45;;
49416;SDS011;35290;39.550;8.786;2023-07-31T13:05:36;4.28;;;2.05;;
49416;SDS011;35290;39.550;8.786;2023-07-31T13:08:10;5.90;;;1.98;;
49416;SDS011;35290;39.550;8.786;2023-07-31T13:10:39;2.67;;;1.70;;
49416;SDS011;35290;39.550;8.786;2023-07-31T13:15:59;4.97;;;1.80;;
49416;SDS011;35290;39.550;8.786;2023-07-31T13:18:29;3.92;;;1.90;;
49416;SDS011;35290;39.550;8.786;2023-07-31T13:20:55;7.13;;;2.50;;
49416;SDS011;35290;39.550;8.786;2023-07-31T13:29:18;4.30;;;1.80;;
49416;SDS011;35290;39.550;8.786;2023-07-31T13:34:46;4.50;;;1.80;;
49416;SDS011;35290;39.550;8.786;2023-07-31T13:37:12;3.58;;;1.58;;
49416;SDS011;35290;39.550;8.786;2023-07-31T13:39:38;4.80;;;2.00;;
49416;SDS011;35290;39.550;8.786;2023-07-31T13:42:04;4.65;;;1.80;;
49416;SDS011;35290;39.550;8.786;2023-07-31T13:44:31;5.28;;;1.90;;
49416;SDS011;35290;39.550;8.786;2023-07-31T13:46:57;4.68;;;1.90;;
49416;SDS011;35290;39.550;8.786;2023-07-31T13:49:29;4.80;;;1.92;;
49416;SDS011;35290;39.550;8.786;2023-07-31T13:51:54;6.43;;;1.90;;
49416;SDS011;35290;39.550;8.786;2023-07-31T13:54:20;4.07;;;1.67;;
49416;SDS011;35290;39.550;8.786;2023-07-31T13:56:45;4.75;;;2.20;;
49416;SDS011;35290;39.550;8.786;2023-07-31T13:59:11;3.90;;;1.67;;
49416;SDS011;35290;39.550;8.786;2023-07-31T14:01:37;5.90;;;1.92;;
49416;SDS011;35290;39.550;8.786;2023-07-31T14:04:05;4.90;;;1.80;;
49416;SDS011;35290;39.550;8.786;2023-07-31T14:06:30;4.35;;;1.90;;
49416;SDS011;35290;39.550;8.786;2023-07-31T14:08:56;7.00;;;1.77;;
49416;SDS011;35290;39.550;8.786;2023-07-31T14:11:22;4.28;;;1.80;;
49416;SDS011;35290;39.550;8.786;2023-07-31T14:13:47;7.13;;;1.85;;
49416;SDS011;35290;39.550;8.786;2023-07-31T14:16:29;8.70;;;2.08;;
49416;SDS011;35290;39.550;8.786;2023-07-31T14:18:55;5.35;;;1.80;;
49416;SDS011;35290;39.550;8.786;2023-07-31T14:21:24;4.68;;;1.77;;
49416;SDS011;35290;39.550;8.786;2023-07-31T14:23:49;4.97;;;1.88;;
49416;SDS011;35290;39.550;8.786;2023-07-31T14:26:15;4.63;;;1.63;;
49416;SDS011;35290;39.550;8.786;2023-07-31T14:28:42;4.20;;;1.75;;
49416;SDS011;35290;39.550;8.786;2023-07-31T14:31:07;4.65;;;2.15;;
49416;SDS011;35290;39.550;8.786;2023-07-31T14:33:33;3.67;;;2.03;;
49416;SDS011;35290;39.550;8.786;2023-07-31T14:36:01;5.30;;;1.88;;
49416;SDS011;35290;39.550;8.786;2023-07-31T14:38:26;4.05;;;1.67;;
49416;SDS011;35290;39.550;8.786;2023-07-31T14:40:52;3.78;;;1.60;;
49416;SDS011;35290;39.550;8.786;2023-07-31T14:43:17;3.88;;;1.50;;
49416;SDS011;35290;39.550;8.786;2023-07-31T14:45:43;5.38;;;2.50;;
49416;SDS011;35290;39.550;8.786;2023-07-31T14:48:09;7.88;;;2.10;;
49416;SDS011;35290;39.550;8.786;2023-07-31T14:50:35;3.97;;;1.95;;
49416;SDS011;35290;39.550;8.786;2023-07-31T14:53:01;3.95;;;1.75;;
49416;SDS011;35290;39.550;8.786;2023-07-31T14:55:33;3.47;;;1.50;;
49416;SDS011;35290;39.550;8.786;2023-07-31T14:57:59;5.80;;;1.70;;
49416;SDS011;35290;39.550;8.786;2023-07-31T15:00:25;5.28;;;1.92;;
49416;SDS011;35290;39.550;8.786;2023-07-31T15:02:51;4.75;;;1.70;;
49416;SDS011;35290;39.550;8.786;2023-07-31T15:05:18;4.65;;;1.77;;
49416;SDS011;35290;39.550;8.786;2023-07-31T15:07:43;4.60;;;2.10;;
49416;SDS011;35290;39.550;8.786;2023-07-31T15:10:10;4.40;;;1.60;;
49416;SDS011;35290;39.550;8.786;2023-07-31T15:12:36;6.05;;;1.75;;
49416;SDS011;35290;39.550;8.786;2023-07-31T15:15:03;6.47;;;1.63;;
49416;SDS011;35290;39.550;8.786;2023-07-31T15:17:30;2.63;;;1.60;;